Hlavní strana
METAR-TAF:

METAR-TAF

Letiště :

Esbjerg, Dánsko

zeměpisná šířka: 55-32N, zeměpisná délka: 008-34E, výška: 30 m

Aktuální stav počasí

Zpráva byla vytvořena před 40 minutami, v 11:50 UTC
Východní vítr 19 kt s nárazy do 30 kt, proměnlivý mezi východoseverovýchodním a východojihovýchodním
Teplota 17°C
Vlhkost vzduchu 36%
Tlak 1011 hPa
Viditelnost 10 km a více

METAR: EKEB 231150Z AUTO 09019G30KT 060V120 9999 NCD 17/02 Q1011

Čas: 14:30 (12:30 UTC)

Předpověď počasí

Zpráva byla vytvořena před 1 hodinou a 9 minutami, v 11:21 UTC
Předpověď platná od 23 v 12 UTC do 23 v 21 UTC
Východní vítr 20 kt
Viditelnost 10 km a více
Žádná oblačnost pod 1500 m, nevyskytují se cumulonimby.
Dočasný
od 23 v 12 UTC do 23 v 18 UTC
Východní vítr 22 kt s nárazy do 40 kt
Změna
od 23 v 18 UTC do 23 v 21 UTC
Východní vítr 14 kt

TAF: EKEB 231121Z 2312/2321 10020KT CAVOK TEMPO 2312/2318 10022G40KT BECMG 2318/2321 10014KT

Stav a předpovědi počasí z více než 4 000 letišť (zprávy METAR a TAF).

Červené a žluté tečky na mapě představují dostupné meteorologické stanice.

Když kurzor umístíte na tečku, zobrazí se název stanice.

Pak kliknutím zobrazíte stav a předpověď počasí.

Chcete-li změnit mapu, kliknutím na zelené tlačítko se znaménkem +mapu přiblížíte, kliknutím na zelené tlačítko se znaménkem – mapu oddálíte a kliknutím na zelené šipky přejdete na sousední mapy.


METAR-TAF: